Time;durP1;ratioP1;P1;durP2;ratioP2;P2;SDS_P1;SDS_P2;PMS_P1;PMS_P2;Temp;Humidity;BMP_temperature;BMP_pressure;BME280_temperature;BME280_humidity;BME280_pressure;Samples;Min_cycle;Max_cycle;Signal;HPM_P1;HPM_P2
2022/12/31 00:01:15;;;;;;;1.70;1.40;;;13.80;78.40;;;;;;5035271;28;20033;-82
2022/12/31 00:03:42;;;;;;;1.33;1.23;;;13.80;78.40;;;;;;5050352;28;20056;-83
2022/12/31 00:06:16;;;;;;;1.50;1.40;;;13.80;78.40;;;;;;5031319;28;20506;-81
2022/12/31 00:08:43;;;;;;;2.08;1.40;;;13.90;78.50;;;;;;5062968;28;20021;-82
2022/12/31 00:11:09;;;;;;;1.38;1.27;;;13.90;78.50;;;;;;5033256;28;20029;-82
2022/12/31 00:13:36;;;;;;;1.45;1.30;;;13.90;78.40;;;;;;5052331;28;20033;-83
2022/12/31 00:16:06;;;;;;;1.40;1.30;;;13.90;78.40;;;;;;5047088;28;20025;-83
2022/12/31 00:18:32;;;;;;;1.10;1.00;;;13.90;78.50;;;;;;5049094;28;20071;-83
2022/12/31 00:20:58;;;;;;;1.30;1.20;;;13.90;78.40;;;;;;5033824;28;20108;-83
2022/12/31 00:23:24;;;;;;;1.27;1.17;;;13.90;78.40;;;;;;5034164;28;20514;-82
2022/12/31 00:25:49;;;;;;;1.10;1.10;;;14.00;78.40;;;;;;5038957;28;20021;-83
2022/12/31 00:28:15;;;;;;;1.02;1.02;;;14.00;78.40;;;;;;5046284;28;20032;-83
2022/12/31 00:30:41;;;;;;;1.30;1.20;;;14.00;78.40;;;;;;5047184;28;20057;-83
2022/12/31 00:33:06;;;;;;;1.10;1.10;;;14.00;78.40;;;;;;5065174;28;20091;-83
2022/12/31 00:35:33;;;;;;;1.30;1.20;;;14.00;78.50;;;;;;5047350;28;20052;-83
2022/12/31 00:37:59;;;;;;;1.30;1.20;;;14.00;78.50;;;;;;5049135;28;20112;-83
2022/12/31 00:40:25;;;;;;;2.25;1.10;;;14.00;78.40;;;;;;5021703;28;20124;-83
2022/12/31 00:42:50;;;;;;;1.20;1.10;;;14.00;78.50;;;;;;5018245;28;20538;-83
2022/12/31 00:45:16;;;;;;;1.08;1.08;;;14.00;78.40;;;;;;5043476;28;20029;-83
2022/12/31 00:47:42;;;;;;;1.05;1.05;;;14.10;78.50;;;;;;5053212;28;20044;-84
2022/12/31 00:50:08;;;;;;;1.23;1.15;;;14.00;78.40;;;;;;5052025;28;20063;-81
2022/12/31 00:52:34;;;;;;;1.10;1.10;;;14.10;78.50;;;;;;5058964;28;20132;-82
2022/12/31 00:55:00;;;;;;;1.30;1.20;;;14.10;78.50;;;;;;5049949;28;20115;-82
2022/12/31 00:57:25;;;;;;;1.05;1.05;;;14.10;78.40;;;;;;5033274;28;20041;-82
2022/12/31 00:59:51;;;;;;;1.10;1.10;;;14.10;78.40;;;;;;5049648;28;20033;-82
2022/12/31 01:02:17;;;;;;;0.98;0.98;;;14.10;78.40;;;;;;5053224;28;20107;-83
2022/12/31 01:04:43;;;;;;;1.25;1.15;;;14.10;78.40;;;;;;5051908;28;20657;-83
2022/12/31 01:07:09;;;;;;;0.95;0.95;;;14.20;78.50;;;;;;5033256;28;20037;-83
2022/12/31 01:09:35;;;;;;;1.00;1.00;;;14.10;78.40;;;;;;5017926;28;20032;-82
2022/12/31 01:12:00;;;;;;;0.80;0.80;;;14.10;78.40;;;;;;5051376;28;20048;-82
2022/12/31 01:14:26;;;;;;;1.00;1.00;;;14.20;78.40;;;;;;5051022;28;20040;-83
2022/12/31 01:16:52;;;;;;;1.10;1.00;;;14.20;78.40;;;;;;5041159;28;20024;-82
2022/12/31 01:19:24;;;;;;;1.63;1.23;;;14.20;78.40;;;;;;5062789;28;20087;-83
2022/12/31 01:21:51;;;;;;;0.90;0.90;;;14.20;78.50;;;;;;5047393;28;20519;-80
2022/12/31 01:24:17;;;;;;;0.93;0.93;;;14.20;78.50;;;;;;5047366;28;20060;-82
2022/12/31 01:26:44;;;;;;;1.00;1.00;;;14.20;78.40;;;;;;5049312;28;20099;-83
2022/12/31 01:29:10;;;;;;;1.30;1.00;;;14.20;78.50;;;;;;5048273;28;21009;-82
2022/12/31 01:31:37;;;;;;;1.00;1.00;;;14.20;78.40;;;;;;5047030;28;20037;-83
2022/12/31 01:34:04;;;;;;;0.93;0.93;;;14.20;78.40;;;;;;5029507;28;20090;-82
2022/12/31 01:36:31;;;;;;;1.17;1.10;;;14.20;78.50;;;;;;5034357;28;20036;-83
2022/12/31 01:38:59;;;;;;;1.48;1.00;;;14.20;78.50;;;;;;5046302;28;20025;-83
2022/12/31 01:41:34;;;;;;;0.90;0.90;;;14.20;78.50;;;;;;5050996;28;20509;-82
2022/12/31 01:44:12;;;;;;;;;;;14.20;78.50;;;;;;5046754;28;20043;-82
2022/12/31 01:46:51;;;;;;;0.90;0.90;;;14.20;78.40;;;;;;5050834;28;20242;-81
2022/12/31 01:49:20;;;;;;;1.00;0.90;;;14.20;78.30;;;;;;5051366;28;20077;-82
2022/12/31 01:51:56;;;;;;;0.90;0.90;;;14.20;78.30;;;;;;5050865;28;20052;-82
2022/12/31 01:54:26;;;;;;;1.20;1.10;;;14.20;78.50;;;;;;5049464;28;20031;-82
2022/12/31 01:56:53;;;;;;;1.10;1.00;;;14.20;78.40;;;;;;5050720;28;20021;-81
2022/12/31 01:59:21;;;;;;;0.93;0.93;;;14.20;78.40;;;;;;5027809;28;20037;-83
2022/12/31 02:01:51;;;;;;;1.02;0.95;;;14.20;78.40;;;;;;5066329;28;20021;-82
2022/12/31 02:04:19;;;;;;;0.95;0.95;;;14.20;78.40;;;;;;5045051;28;20117;-83
2022/12/31 02:06:50;;;;;;;1.00;1.00;;;14.20;78.50;;;;;;5033460;28;20561;-82
2022/12/31 02:09:16;;;;;;;1.13;1.00;;;14.20;78.50;;;;;;5049391;28;20074;-83
2022/12/31 02:11:42;;;;;;;0.95;0.95;;;14.30;78.50;;;;;;5051048;28;20033;-82
2022/12/31 02:14:13;;;;;;;1.08;1.08;;;14.20;78.40;;;;;;5047074;28;20029;-82
2022/12/31 02:16:42;;;;;;;1.10;1.00;;;14.20;78.40;;;;;;5048300;28;20033;-83
2022/12/31 02:19:29;;;;;;;1.20;1.10;;;14.20;78.30;;;;;;5049606;28;20096;-84
2022/12/31 02:22:12;;;;;;;0.98;0.98;;;14.30;78.40;;;;;;5030560;28;20079;-82
2022/12/31 02:24:49;;;;;;;1.10;1.08;;;14.20;78.30;;;;;;5064399;28;20544;-83
2022/12/31 02:27:47;;;;;;;1.27;0.90;;;14.20;78.40;;;;;;5048974;28;20032;-83
2022/12/31 02:30:17;;;;;;;1.00;0.95;;;14.30;78.40;;;;;;5037002;28;20060;-82
2022/12/31 02:33:20;;;;;;;0.90;0.90;;;14.30;78.40;;;;;;5046835;28;20029;-82
2022/12/31 02:35:54;;;;;;;1.10;1.10;;;14.20;78.50;;;;;;5046203;28;20029;-82
2022/12/31 02:38:35;;;;;;;1.08;1.00;;;14.20;78.40;;;;;;5026998;28;20056;-82
2022/12/31 02:41:01;;;;;;;0.90;0.90;;;14.20;78.40;;;;;;5051357;28;20108;-80
2022/12/31 02:43:27;;;;;;;1.10;1.02;;;14.20;78.40;;;;;;5033869;28;20168;-82
2022/12/31 02:46:21;;;;;;;1.20;1.10;;;14.30;78.50;;;;;;5053933;28;20052;-81
2022/12/31 02:49:17;;;;;;;1.20;1.10;;;14.20;78.40;;;;;;5083779;28;20025;-82
2022/12/31 02:51:48;;;;;;;0.90;0.90;;;14.30;78.50;;;;;;5050935;28;20037;-82
2022/12/31 02:54:39;;;;;;;1.00;1.00;;;14.30;78.50;;;;;;5049201;28;20029;-82
2022/12/31 02:57:44;;;;;;;0.82;0.82;;;14.20;78.40;;;;;;5053636;28;20021;-81
2022/12/31 03:02:59;;;;;;;1.38;1.27;;;14.30;78.40;;;;;;5050026;28;20381;-81
2022/12/31 03:05:30;;;;;;;0.95;0.95;;;14.30;78.40;;;;;;5049247;28;20167;-82
2022/12/31 03:07:55;;;;;;;1.00;1.00;;;14.20;78.30;;;;;;5051175;28;20116;-82
2022/12/31 03:10:21;;;;;;;1.20;1.10;;;14.30;78.40;;;;;;5046864;28;20159;-81
2022/12/31 03:12:47;;;;;;;1.00;1.00;;;14.30;78.40;;;;;;5039679;28;20773;-81
2022/12/31 03:15:27;;;;;;;1.10;1.08;;;14.20;78.30;;;;;;5045129;28;20476;-81
2022/12/31 03:17:56;;;;;;;2.15;1.20;;;14.30;78.40;;;;;;5047716;28;20028;-80
2022/12/31 03:23:15;;;;;;;0.90;0.90;;;14.30;78.40;;;;;;5049284;28;20037;-80
2022/12/31 03:25:42;;;;;;;1.17;1.10;;;14.30;78.40;;;;;;5048710;28;20477;-80
2022/12/31 03:28:12;;;;;;;0.90;0.90;;;14.20;78.40;;;;;;5037438;28;20501;-81
2022/12/31 03:30:40;;;;;;;1.10;1.00;;;14.30;78.40;;;;;;5058298;28;20024;-82
2022/12/31 03:33:07;;;;;;;0.80;0.80;;;14.20;78.30;;;;;;5049364;28;20112;-81
2022/12/31 03:35:35;;;;;;;1.02;1.02;;;14.20;78.30;;;;;;5067774;28;20036;-82
2022/12/31 03:38:02;;;;;;;1.10;1.10;;;14.20;78.30;;;;;;5047817;28;20036;-82
2022/12/31 03:40:29;;;;;;;0.90;0.90;;;14.30;78.40;;;;;;5050067;28;20488;-81
2022/12/31 03:42:55;;;;;;;1.38;1.10;;;14.30;78.40;;;;;;5051191;28;20524;-83
2022/12/31 03:45:22;;;;;;;1.00;1.00;;;14.30;78.40;;;;;;5048869;28;20539;-82
2022/12/31 03:47:48;;;;;;;0.90;0.90;;;14.30;78.40;;;;;;5048299;28;20156;-83
2022/12/31 03:50:15;;;;;;;1.05;1.00;;;14.20;78.30;;;;;;5051054;28;20444;-82
2022/12/31 03:52:42;;;;;;;1.20;1.15;;;14.30;78.40;;;;;;5035569;28;20076;-82
2022/12/31 03:55:09;;;;;;;1.00;0.90;;;14.20;78.30;;;;;;5052537;28;20036;-82
2022/12/31 03:57:36;;;;;;;0.93;0.93;;;14.30;78.40;;;;;;5035967;28;20037;-82
2022/12/31 04:00:03;;;;;;;1.02;1.02;;;14.20;78.40;;;;;;5054524;28;20465;-82
2022/12/31 04:02:30;;;;;;;1.20;1.15;;;14.30;78.40;;;;;;5053762;28;20379;-82
2022/12/31 04:04:55;;;;;;;1.17;1.08;;;14.20;78.40;;;;;;5052275;28;20029;-83
2022/12/31 04:07:21;;;;;;;1.10;1.00;;;14.20;78.40;;;;;;5035871;28;20033;-83
2022/12/31 04:09:47;;;;;;;1.00;1.00;;;14.20;78.30;;;;;;5053099;28;20040;-82
2022/12/31 04:12:13;;;;;;;1.15;1.10;;;14.20;78.40;;;;;;5051431;28;20025;-82
2022/12/31 04:14:39;;;;;;;1.10;1.10;;;14.20;78.40;;;;;;5039025;28;20045;-83
2022/12/31 04:17:04;;;;;;;1.00;1.00;;;14.20;78.40;;;;;;5035905;28;20128;-82
2022/12/31 04:19:30;;;;;;;1.17;1.17;;;14.20;78.40;;;;;;5053958;28;20082;-83
2022/12/31 04:21:56;;;;;;;1.30;1.20;;;14.20;78.40;;;;;;5035175;28;20390;-83
2022/12/31 04:24:22;;;;;;;1.20;1.10;;;14.20;78.40;;;;;;5035237;28;20032;-82
2022/12/31 04:26:47;;;;;;;1.05;1.05;;;14.20;78.40;;;;;;5050267;28;20818;-82
2022/12/31 04:29:13;;;;;;;1.10;1.10;;;14.20;78.40;;;;;;5050765;28;20021;-83
2022/12/31 04:31:39;;;;;;;1.23;1.13;;;14.20;78.40;;;;;;5027876;28;20091;-83
2022/12/31 04:34:04;;;;;;;1.20;1.10;;;14.20;78.50;;;;;;5046333;28;20029;-82
2022/12/31 04:36:30;;;;;;;1.17;1.10;;;14.20;78.50;;;;;;5048620;28;20032;-83
2022/12/31 04:38:56;;;;;;;1.30;1.20;;;14.20;78.50;;;;;;5044290;28;20029;-82
2022/12/31 04:41:22;;;;;;;1.30;1.25;;;14.20;78.50;;;;;;5032174;28;20031;-83
2022/12/31 04:43:58;;;;;;;1.10;1.10;;;14.20;78.50;;;;;;5046981;28;20043;-83
2022/12/31 04:46:30;;;;;;;1.30;1.20;;;14.20;78.60;;;;;;5047780;28;20025;-82
2022/12/31 04:48:56;;;;;;;1.10;1.10;;;14.20;78.60;;;;;;5064245;28;20028;-83
2022/12/31 04:51:22;;;;;;;2.17;1.35;;;14.20;78.60;;;;;;5046627;28;20030;-83
2022/12/31 04:53:49;;;;;;;1.40;1.30;;;14.20;78.60;;;;;;5045808;28;20053;-82
2022/12/31 04:56:16;;;;;;;1.05;1.05;;;14.20;78.60;;;;;;5050425;28;20025;-82
2022/12/31 04:58:43;;;;;;;2.33;1.10;;;14.20;78.60;;;;;;5051048;28;20032;-81
2022/12/31 05:01:09;;;;;;;1.30;1.20;;;14.20;78.70;;;;;;5050238;28;20382;-81
2022/12/31 05:03:36;;;;;;;1.13;1.13;;;14.20;78.70;;;;;;5052024;28;20028;-83
2022/12/31 05:06:05;;;;;;;1.25;1.10;;;14.20;78.60;;;;;;5036115;28;20075;-81
2022/12/31 05:08:31;;;;;;;1.02;1.02;;;14.20;78.70;;;;;;5050151;28;20436;-81
2022/12/31 05:10:57;;;;;;;1.20;1.10;;;14.20;78.70;;;;;;5045601;28;20033;-81
2022/12/31 05:13:23;;;;;;;1.10;1.10;;;14.20;78.70;;;;;;5051161;28;20029;-83
2022/12/31 05:15:49;;;;;;;1.02;1.02;;;14.20;78.70;;;;;;5049149;28;20028;-83
2022/12/31 05:18:16;;;;;;;1.25;1.15;;;14.20;78.70;;;;;;5032949;28;20490;-83
2022/12/31 05:20:41;;;;;;;1.15;1.10;;;14.20;78.70;;;;;;5047311;28;20706;-83
2022/12/31 05:23:07;;;;;;;1.30;1.20;;;14.20;78.70;;;;;;5047884;28;20118;-83
2022/12/31 05:25:33;;;;;;;1.30;1.20;;;14.20;78.70;;;;;;5017046;28;20069;-82
2022/12/31 05:27:59;;;;;;;1.40;1.30;;;14.20;78.70;;;;;;5052218;28;20111;-82
2022/12/31 05:30:25;;;;;;;1.20;1.10;;;14.20;78.70;;;;;;5048286;28;20033;-82
2022/12/31 05:32:51;;;;;;;1.42;1.33;;;14.20;78.60;;;;;;5030931;28;20029;-83
2022/12/31 05:35:17;;;;;;;1.10;1.00;;;14.20;78.70;;;;;;5030798;28;21209;-82
2022/12/31 05:37:43;;;;;;;1.38;1.20;;;14.20;78.60;;;;;;5043645;28;20025;-82
2022/12/31 05:40:10;;;;;;;1.27;1.20;;;14.20;78.60;;;;;;5045435;28;20048;-82
2022/12/31 05:42:35;;;;;;;1.08;1.00;;;14.20;78.70;;;;;;5047357;28;20481;-83
2022/12/31 05:45:01;;;;;;;1.00;1.00;;;14.20;78.60;;;;;;5047362;28;20025;-82
2022/12/31 05:47:27;;;;;;;1.00;1.00;;;14.20;78.60;;;;;;5048131;28;20055;-83
2022/12/31 05:49:53;;;;;;;1.15;1.00;;;14.20;78.60;;;;;;5048969;28;20426;-82
2022/12/31 05:52:19;;;;;;;1.10;1.10;;;14.20;78.60;;;;;;5046591;28;20053;-82
2022/12/31 05:54:45;;;;;;;1.13;1.02;;;14.20;78.60;;;;;;5047514;28;20029;-82
2022/12/31 05:57:11;;;;;;;1.52;1.20;;;14.20;78.60;;;;;;5047419;28;20033;-82
2022/12/31 05:59:37;;;;;;;0.90;0.90;;;14.20;78.60;;;;;;5029618;28;20030;-82
2022/12/31 06:02:03;;;;;;;0.88;0.88;;;14.20;78.60;;;;;;5033894;28;20086;-82
2022/12/31 06:04:29;;;;;;;1.02;1.02;;;14.30;78.60;;;;;;5019159;28;20029;-82
2022/12/31 06:06:54;;;;;;;1.10;1.10;;;14.20;78.60;;;;;;5048574;28;20033;-82
2022/12/31 06:09:21;;;;;;;0.90;0.90;;;14.30;78.60;;;;;;5027928;28;20052;-82
2022/12/31 06:11:46;;;;;;;1.00;1.00;;;14.30;78.60;;;;;;5049207;28;20041;-83
2022/12/31 06:14:13;;;;;;;0.90;0.90;;;14.20;78.60;;;;;;5030835;28;20111;-81
2022/12/31 06:16:39;;;;;;;1.00;1.00;;;14.30;78.60;;;;;;5039796;28;20039;-82
2022/12/31 06:19:06;;;;;;;0.85;0.85;;;14.30;78.60;;;;;;5035819;28;20752;-82
2022/12/31 06:21:31;;;;;;;1.00;1.00;;;14.20;78.60;;;;;;5028887;28;20033;-82
2022/12/31 06:23:58;;;;;;;0.80;0.80;;;14.30;78.70;;;;;;5049560;28;20481;-81
2022/12/31 06:26:24;;;;;;;0.90;0.90;;;14.30;78.60;;;;;;5050997;28;20028;-83
2022/12/31 06:28:50;;;;;;;0.90;0.90;;;14.30;78.70;;;;;;5051190;28;20087;-82
2022/12/31 06:31:16;;;;;;;0.90;0.90;;;14.30;78.70;;;;;;5035987;28;20033;-80
2022/12/31 06:33:42;;;;;;;1.00;1.00;;;14.30;78.70;;;;;;5052656;28;20040;-82
2022/12/31 06:36:11;;;;;;;0.90;0.90;;;14.30;78.70;;;;;;5052726;28;20507;-81
2022/12/31 06:38:39;;;;;;;0.93;0.93;;;14.20;78.60;;;;;;5046337;28;20052;-82
2022/12/31 06:41:11;;;;;;;0.90;0.90;;;14.30;78.70;;;;;;5050309;28;20020;-82
2022/12/31 06:43:38;;;;;;;0.95;0.95;;;14.30;78.70;;;;;;5052587;28;20082;-83
2022/12/31 06:46:07;;;;;;;0.90;0.90;;;14.30;78.60;;;;;;5054193;28;20035;-83
2022/12/31 06:48:33;;;;;;;0.93;0.93;;;14.30;78.70;;;;;;5053418;28;20089;-84
2022/12/31 06:51:04;;;;;;;1.00;1.00;;;14.30;78.70;;;;;;5038440;28;20121;-84
2022/12/31 06:53:30;;;;;;;0.80;0.80;;;14.30;78.70;;;;;;5050200;28;20053;-82
2022/12/31 06:56:04;;;;;;;0.90;0.90;;;14.30;78.60;;;;;;5051765;28;20064;-82
2022/12/31 06:58:30;;;;;;;0.80;0.80;;;14.30;78.70;;;;;;5056430;28;20033;-82
2022/12/31 07:01:13;;;;;;;0.88;0.88;;;14.30;78.60;;;;;;5019671;28;20025;-83
2022/12/31 07:03:53;;;;;;;0.90;0.90;;;14.30;78.70;;;;;;5051884;28;20048;-82
2022/12/31 07:06:45;;;;;;;0.85;0.85;;;14.30;78.70;;;;;;5059294;28;20021;-83
2022/12/31 07:09:36;;;;;;;0.80;0.80;;;14.30;78.70;;;;;;5017733;28;20037;-83
2022/12/31 07:12:53;;;;;;;0.80;0.80;;;14.30;78.70;;;;;;5045159;28;20469;-83
2022/12/31 07:15:43;;;;;;;0.80;0.80;;;14.30;78.80;;;;;;5047252;28;20539;-82
2022/12/31 07:18:22;;;;;;;0.70;0.70;;;14.30;78.70;;;;;;5053434;28;20651;-81
2022/12/31 07:20:48;;;;;;;0.85;0.85;;;14.30;78.80;;;;;;5050155;28;20082;-82
2022/12/31 07:23:14;;;;;;;0.80;0.80;;;14.30;78.70;;;;;;5035196;28;20032;-81
2022/12/31 07:25:46;;;;;;;0.90;0.90;;;14.30;78.70;;;;;;5033167;28;20067;-82
2022/12/31 07:28:36;;;;;;;0.80;0.80;;;14.40;78.90;;;;;;5037173;28;20037;-80
2022/12/31 07:31:16;;;;;;;0.80;0.80;;;14.40;78.90;;;;;;5064418;28;20087;-82
2022/12/31 07:33:50;;;;;;;0.90;0.90;;;14.30;78.80;;;;;;5073369;28;20137;-84
2022/12/31 07:36:37;;;;;;;0.82;0.82;;;14.40;78.80;;;;;;5082128;28;20030;-88
2022/12/31 07:39:31;;;;;;;0.70;0.70;;;14.40;78.90;;;;;;5049134;28;20025;-86
2022/12/31 07:42:20;;;;;;;1.00;1.00;;;14.40;78.90;;;;;;5044912;28;20082;-81
2022/12/31 07:44:53;;;;;;;0.80;0.80;;;14.40;78.80;;;;;;5050058;28;20136;-86
2022/12/31 07:47:26;;;;;;;0.70;0.70;;;14.40;78.80;;;;;;5048371;28;20051;-84
2022/12/31 07:49:53;;;;;;;0.80;0.80;;;14.40;78.80;;;;;;5032153;28;20061;-85
2022/12/31 07:52:19;;;;;;;0.80;0.80;;;14.50;78.90;;;;;;5018069;28;20053;-86
2022/12/31 07:54:46;;;;;;;0.80;0.80;;;14.50;78.90;;;;;;5017556;28;20079;-83
2022/12/31 07:57:13;;;;;;;0.80;0.80;;;14.50;78.90;;;;;;5035117;28;20037;-84
2022/12/31 08:00:01;;;;;;;0.80;0.80;;;14.50;78.90;;;;;;5051636;28;20041;-84
2022/12/31 08:02:48;;;;;;;0.77;0.77;;;14.50;79.00;;;;;;5049711;28;20021;-84
2022/12/31 08:05:34;;;;;;;0.80;0.80;;;14.50;78.90;;;;;;5035520;28;20094;-84
2022/12/31 08:08:30;;;;;;;1.25;1.15;;;14.50;78.90;;;;;;5048296;28;20025;-84
2022/12/31 08:11:05;;;;;;;0.90;0.90;;;14.60;79.60;;;;;;5051929;28;20045;-83
2022/12/31 08:13:31;;;;;;;0.90;0.90;;;14.50;78.90;;;;;;5050026;28;20060;-83
2022/12/31 08:15:58;;;;;;;0.80;0.80;;;14.60;78.90;;;;;;5034409;28;20069;-84
2022/12/31 08:18:24;;;;;;;0.85;0.80;;;14.60;78.90;;;;;;5051245;28;20462;-84
2022/12/31 08:21:08;;;;;;;0.88;0.88;;;14.60;78.90;;;;;;5051380;28;20082;-83
2022/12/31 08:23:43;;;;;;;0.90;0.90;;;14.60;78.90;;;;;;5051506;28;20472;-84
2022/12/31 08:26:47;;;;;;;0.65;0.65;;;14.60;78.90;;;;;;5050168;28;20032;-84
2022/12/31 08:29:37;;;;;;;1.05;0.70;;;14.60;78.90;;;;;;5049874;28;20044;-85
2022/12/31 08:32:08;;;;;;;0.80;0.80;;;14.60;78.90;;;;;;5032404;28;20048;-84
2022/12/31 08:34:48;;;;;;;0.80;0.80;;;14.70;78.90;;;;;;5050496;28;20047;-84
2022/12/31 08:37:21;;;;;;;1.40;1.10;;;14.70;78.90;;;;;;5049109;28;20028;-84
2022/12/31 08:40:09;;;;;;;1.08;0.98;;;14.70;78.90;;;;;;5052042;28;20496;-81
2022/12/31 08:42:57;;;;;;;0.85;0.85;;;14.70;78.90;;;;;;5048841;28;20537;-83
2022/12/31 08:45:32;;;;;;;0.93;0.93;;;14.70;78.90;;;;;;5050638;28;20057;-82
2022/12/31 08:48:13;;;;;;;0.73;0.73;;;14.70;78.80;;;;;;5035057;28;20013;-84
2022/12/31 08:50:39;;;;;;;0.90;0.90;;;14.70;78.90;;;;;;5048524;28;20048;-83
2022/12/31 08:53:05;;;;;;;0.70;0.70;;;14.80;78.90;;;;;;5050411;28;20053;-83
2022/12/31 08:55:31;;;;;;;0.80;0.80;;;14.80;78.90;;;;;;5055171;28;20068;-82
2022/12/31 08:58:09;;;;;;;0.93;0.90;;;14.80;78.90;;;;;;5033242;28;20104;-83
2022/12/31 09:00:37;;;;;;;0.70;0.70;;;14.80;78.90;;;;;;5049612;28;20500;-83
2022/12/31 09:03:15;;;;;;;0.70;0.70;;;14.80;78.90;;;;;;5032779;28;20021;-84
2022/12/31 09:06:04;;;;;;;0.70;0.70;;;14.80;78.90;;;;;;5050351;28;20044;-84
2022/12/31 09:09:12;;;;;;;0.80;0.80;;;14.80;79.00;;;;;;5046752;28;20029;-83
2022/12/31 09:11:51;;;;;;;1.30;0.88;;;14.80;78.90;;;;;;5047304;28;20037;-82
2022/12/31 09:14:41;;;;;;;0.70;0.70;;;14.80;78.90;;;;;;5046474;28;20045;-83
2022/12/31 09:17:43;;;;;;;0.90;0.90;;;14.80;78.90;;;;;;5045902;28;20115;-83
2022/12/31 09:20:26;;;;;;;0.80;0.80;;;14.90;79.00;;;;;;5048689;28;20112;-83
2022/12/31 09:22:53;;;;;;;0.82;0.80;;;14.90;78.90;;;;;;5048562;28;20466;-83
2022/12/31 09:25:21;;;;;;;0.80;0.80;;;14.80;78.90;;;;;;5031944;28;20037;-82
2022/12/31 09:28:07;;;;;;;0.80;0.80;;;14.80;78.90;;;;;;5048633;28;20127;-83
2022/12/31 09:30:57;;;;;;;0.80;0.80;;;14.90;79.60;;;;;;5031687;28;20226;-82
2022/12/31 09:33:51;;;;;;;0.77;0.77;;;14.90;79.00;;;;;;5044012;28;20040;-82
2022/12/31 09:36:37;;;;;;;0.98;0.80;;;14.90;78.90;;;;;;5033425;28;20443;-82
2022/12/31 09:39:11;;;;;;;0.80;0.80;;;14.90;78.90;;;;;;5063341;28;20365;-82
2022/12/31 09:41:45;;;;;;;0.95;0.95;;;14.90;78.80;;;;;;5061548;28;20485;-82
2022/12/31 09:44:27;;;;;;;0.90;0.90;;;14.90;78.90;;;;;;5054476;28;20606;-82
2022/12/31 09:46:56;;;;;;;0.77;0.77;;;14.90;78.80;;;;;;5049109;28;20164;-82
2022/12/31 09:49:56;;;;;;;0.93;0.88;;;15.00;78.90;;;;;;5051223;28;20516;-81
2022/12/31 09:52:47;;;;;;;1.00;1.00;;;15.00;78.90;;;;;;5053703;28;20053;-81
2022/12/31 09:55:18;;;;;;;0.75;0.70;;;15.00;78.80;;;;;;5050161;28;20044;-82
2022/12/31 09:58:26;;;;;;;0.85;0.77;;;15.00;78.80;;;;;;5049439;28;20025;-83
2022/12/31 10:00:58;;;;;;;0.70;0.70;;;15.00;78.90;;;;;;5064882;28;20059;-82
2022/12/31 10:03:51;;;;;;;1.85;0.90;;;15.00;78.90;;;;;;5049424;28;20053;-83
2022/12/31 10:06:33;;;;;;;0.80;0.80;;;15.00;78.90;;;;;;5049055;28;20033;-82
2022/12/31 10:09:20;;;;;;;0.70;0.70;;;15.00;78.90;;;;;;5033034;28;20029;-82
2022/12/31 10:12:23;;;;;;;0.80;0.80;;;15.10;79.00;;;;;;5047373;28;20033;-82
2022/12/31 10:15:01;;;;;;;0.93;0.90;;;15.10;79.00;;;;;;5048326;28;20554;-82
2022/12/31 10:17:55;;;;;;;1.15;0.90;;;15.10;78.90;;;;;;5050783;28;20538;-82
2022/12/31 10:20:26;;;;;;;0.90;0.90;;;15.10;79.00;;;;;;5049089;28;20097;-83
2022/12/31 10:23:17;;;;;;;1.08;0.90;;;15.10;78.90;;;;;;5047278;28;20031;-82
2022/12/31 10:26:16;;;;;;;0.85;0.82;;;15.10;79.00;;;;;;5063605;28;20420;-82
2022/12/31 10:28:45;;;;;;;1.65;1.02;;;15.10;79.00;;;;;;5048845;28;20021;-82
2022/12/31 10:31:13;;;;;;;1.50;0.98;;;15.10;78.90;;;;;;5049767;28;20029;-82
2022/12/31 10:34:03;;;;;;;1.00;0.90;;;15.20;79.00;;;;;;5048768;28;20473;-81
2022/12/31 10:36:55;;;;;;;0.80;0.80;;;15.20;79.00;;;;;;5050372;28;20119;-82
2022/12/31 10:39:44;;;;;;;0.80;0.80;;;15.20;79.00;;;;;;5047882;28;20029;-82
2022/12/31 10:42:34;;;;;;;0.90;0.90;;;15.20;79.00;;;;;;5063265;28;20311;-81
2022/12/31 10:45:22;;;;;;;0.90;0.90;;;15.20;79.00;;;;;;5054769;28;20025;-82
2022/12/31 10:48:09;;;;;;;1.02;1.00;;;15.30;79.10;;;;;;5049958;28;20115;-81
2022/12/31 10:50:52;;;;;;;1.55;1.00;;;15.30;79.00;;;;;;5049079;28;20107;-82
2022/12/31 10:53:24;;;;;;;0.82;0.82;;;15.30;79.00;;;;;;5047948;28;20048;-81
2022/12/31 10:56:20;;;;;;;1.30;1.05;;;15.30;79.00;;;;;;5046450;28;20494;-82
2022/12/31 10:59:24;;;;;;;1.08;0.90;;;15.30;79.10;;;;;;5030379;28;20025;-83
2022/12/31 11:02:24;;;;;;;1.02;0.95;;;15.30;79.00;;;;;;5050437;28;20490;-83
2022/12/31 11:05:22;;;;;;;0.90;0.90;;;15.30;79.00;;;;;;5051449;28;20021;-83
2022/12/31 11:08:00;;;;;;;1.30;1.02;;;15.40;79.00;;;;;;5047001;28;20063;-83
2022/12/31 11:10:43;;;;;;;1.10;0.90;;;15.40;79.00;;;;;;5048711;28;20390;-83
2022/12/31 11:13:52;;;;;;;1.30;0.90;;;15.40;79.10;;;;;;5049526;28;20041;-85
2022/12/31 11:16:26;;;;;;;1.77;0.98;;;15.40;79.00;;;;;;5050449;28;20033;-85
2022/12/31 11:19:25;;;;;;;1.00;1.00;;;15.50;79.00;;;;;;5044336;28;20029;-84
2022/12/31 11:22:01;;;;;;;0.90;0.90;;;15.50;79.10;;;;;;5009588;28;20036;-84
2022/12/31 11:24:46;;;;;;;0.98;0.98;;;15.50;79.00;;;;;;5047754;28;20045;-84
2022/12/31 11:27:17;;;;;;;;;;;15.50;79.10;;;;;;5054006;28;20025;-85
2022/12/31 11:30:05;;;;;;;0.93;0.93;;;15.50;78.90;;;;;;5048677;28;19991;-83
2022/12/31 11:32:55;;;;;;;1.27;1.08;;;15.50;78.80;;;;;;5050230;28;20074;-84
2022/12/31 11:35:54;;;;;;;0.98;0.98;;;15.60;79.00;;;;;;5047053;28;20635;-86
2022/12/31 11:38:22;;;;;;;1.30;1.20;;;15.60;79.00;;;;;;5052185;28;20052;-86
2022/12/31 11:41:10;;;;;;;1.10;1.10;;;15.60;79.00;;;;;;5031094;28;20029;-84
2022/12/31 11:44:01;;;;;;;1.10;1.00;;;15.60;79.70;;;;;;5052606;28;20484;-82
2022/12/31 11:46:39;;;;;;;1.20;1.10;;;15.60;79.00;;;;;;5048653;28;20504;-81
2022/12/31 11:49:20;;;;;;;1.23;1.10;;;15.60;79.00;;;;;;5065434;28;20029;-84
2022/12/31 11:52:12;;;;;;;1.92;1.20;;;15.60;79.00;;;;;;5045448;28;20048;-84
2022/12/31 11:55:01;;;;;;;1.42;1.25;;;15.70;79.00;;;;;;5048767;28;20044;-83
2022/12/31 11:57:33;;;;;;;1.17;1.10;;;15.70;79.00;;;;;;5047543;28;20025;-84
2022/12/31 12:00:08;;;;;;;1.20;1.10;;;15.80;79.00;;;;;;5035506;28;20082;-83
2022/12/31 12:02:45;;;;;;;1.80;1.30;;;15.70;78.90;;;;;;5050984;28;20067;-82
2022/12/31 12:05:14;;;;;;;1.15;1.10;;;15.80;79.00;;;;;;5049383;28;20473;-82
2022/12/31 12:07:40;;;;;;;1.30;1.20;;;15.80;79.00;;;;;;5051152;28;20105;-82
2022/12/31 12:10:49;;;;;;;2.20;1.38;;;15.80;78.90;;;;;;5051656;28;20525;-82
2022/12/31 12:13:24;;;;;;;1.23;1.13;;;15.80;79.00;;;;;;5046936;28;20049;-82
2022/12/31 12:15:51;;;;;;;;;;;15.90;78.90;;;;;;5050960;28;20497;-84
2022/12/31 12:18:39;;;;;;;1.25;1.10;;;15.80;78.80;;;;;;5048121;28;19915;-84
2022/12/31 12:21:13;;;;;;;1.38;1.05;;;15.90;78.80;;;;;;5046506;28;20018;-84
2022/12/31 12:23:39;;;;;;;1.42;1.15;;;15.90;78.80;;;;;;5047024;28;20197;-83
2022/12/31 12:26:06;;;;;;;1.42;1.10;;;15.90;78.80;;;;;;5049829;28;20116;-90
2022/12/31 12:28:44;;;;;;;1.13;1.10;;;15.90;78.90;;;;;;5063832;28;20142;-85
2022/12/31 12:31:19;;;;;;;1.98;1.17;;;15.90;78.90;;;;;;5044754;28;20053;-83
2022/12/31 12:33:46;;;;;;;1.30;1.17;;;15.90;78.90;;;;;;5052075;28;20090;-85
2022/12/31 12:36:14;;;;;;;1.52;1.30;;;15.90;78.80;;;;;;5035861;28;20370;-85
2022/12/31 12:38:41;;;;;;;1.88;1.20;;;16.00;78.90;;;;;;5049017;28;20066;-87
2022/12/31 12:41:18;;;;;;;1.50;1.05;;;16.00;78.90;;;;;;5019561;28;20028;-83
2022/12/31 12:43:44;;;;;;;1.90;1.48;;;16.10;79.00;;;;;;5053840;28;20029;-83
2022/12/31 12:46:22;;;;;;;1.40;1.02;;;16.00;79.00;;;;;;5032375;28;20397;-83
2022/12/31 12:48:54;;;;;;;1.25;1.15;;;16.10;79.10;;;;;;5046728;28;20044;-84
2022/12/31 12:51:20;;;;;;;2.20;1.40;;;16.10;79.10;;;;;;5076101;28;20705;-83
2022/12/31 12:53:58;;;;;;;1.08;1.00;;;16.10;79.00;;;;;;5042735;28;20330;-83
2022/12/31 12:56:50;;;;;;;2.10;1.30;;;16.10;79.00;;;;;;5031919;28;20036;-83
2022/12/31 13:00:00;;;;;;;2.30;1.30;;;16.10;79.10;;;;;;5025566;28;20033;-83
2022/12/31 13:03:02;;;;;;;1.63;1.30;;;16.10;79.00;;;;;;5044884;28;20486;-84
2022/12/31 13:05:52;;;;;;;1.27;1.17;;;16.10;79.00;;;;;;5045421;28;20066;-80
2022/12/31 13:08:27;;;;;;;1.27;1.17;;;16.10;79.00;;;;;;5050784;28;20550;-84
2022/12/31 13:11:21;;;;;;;3.05;1.23;;;16.10;79.10;;;;;;5043969;28;20052;-84
2022/12/31 13:14:08;;;;;;;1.33;1.23;;;16.10;79.10;;;;;;5046943;28;20477;-83
2022/12/31 13:16:46;;;;;;;1.40;1.30;;;16.20;79.20;;;;;;5047237;28;20037;-84
2022/12/31 13:19:26;;;;;;;2.17;1.30;;;16.20;79.20;;;;;;5048569;28;20025;-85
2022/12/31 13:21:52;;;;;;;2.10;1.40;;;16.20;79.10;;;;;;5061469;28;20079;-81
2022/12/31 13:24:35;;;;;;;1.52;1.23;;;16.20;79.10;;;;;;5049259;28;20029;-85
2022/12/31 13:27:26;;;;;;;2.35;1.35;;;16.20;79.10;;;;;;5046832;28;20037;-86
2022/12/31 13:29:55;;;;;;;2.25;1.40;;;16.20;79.20;;;;;;5042789;28;20029;-85
2022/12/31 13:32:28;;;;;;;1.75;1.10;;;16.20;79.10;;;;;;5047070;28;20041;-84